sensor_id;sensor_type;location;lat;lon;timestamp;temperature;humidity
2174;DHT22;1093;51.424;11.764;2022-12-22T00:01:50;5.80;1.40
2174;DHT22;1093;51.424;11.764;2022-12-22T00:04:34;5.80;1.40
2174;DHT22;1093;51.424;11.764;2022-12-22T00:07:19;5.70;1.40
2174;DHT22;1093;51.424;11.764;2022-12-22T00:10:04;5.70;1.40
2174;DHT22;1093;51.424;11.764;2022-12-22T00:12:48;5.60;1.40
2174;DHT22;1093;51.424;11.764;2022-12-22T00:15:35;5.50;1.40
2174;DHT22;1093;51.424;11.764;2022-12-22T00:18:20;5.60;1.40
2174;DHT22;1093;51.424;11.764;2022-12-22T00:21:04;5.60;1.40
2174;DHT22;1093;51.424;11.764;2022-12-22T00:23:49;5.70;1.40
2174;DHT22;1093;51.424;11.764;2022-12-22T00:26:34;5.80;1.40
2174;DHT22;1093;51.424;11.764;2022-12-22T00:29:19;5.90;1.40
2174;DHT22;1093;51.424;11.764;2022-12-22T00:32:05;5.90;1.40
2174;DHT22;1093;51.424;11.764;2022-12-22T00:34:51;6.00;1.40
2174;DHT22;1093;51.424;11.764;2022-12-22T00:37:36;6.10;1.40
2174;DHT22;1093;51.424;11.764;2022-12-22T00:40:22;6.10;1.40
2174;DHT22;1093;51.424;11.764;2022-12-22T00:43:08;6.30;1.40
2174;DHT22;1093;51.424;11.764;2022-12-22T00:45:52;6.40;1.40
2174;DHT22;1093;51.424;11.764;2022-12-22T00:48:41;6.40;1.40
2174;DHT22;1093;51.424;11.764;2022-12-22T00:51:26;6.50;1.40
2174;DHT22;1093;51.424;11.764;2022-12-22T00:54:12;6.60;1.40
2174;DHT22;1093;51.424;11.764;2022-12-22T00:56:57;6.60;1.40
2174;DHT22;1093;51.424;11.764;2022-12-22T00:59:42;6.60;1.40
2174;DHT22;1093;51.424;11.764;2022-12-22T01:02:27;6.70;1.40
2174;DHT22;1093;51.424;11.764;2022-12-22T01:05:12;6.80;1.40
2174;DHT22;1093;51.424;11.764;2022-12-22T01:07:57;6.80;1.40
2174;DHT22;1093;51.424;11.764;2022-12-22T01:10:41;6.90;1.40
2174;DHT22;1093;51.424;11.764;2022-12-22T01:13:26;6.90;1.40
2174;DHT22;1093;51.424;11.764;2022-12-22T01:16:12;6.90;1.40
2174;DHT22;1093;51.424;11.764;2022-12-22T01:18:56;6.90;1.40
2174;DHT22;1093;51.424;11.764;2022-12-22T01:21:42;6.90;1.40
2174;DHT22;1093;51.424;11.764;2022-12-22T01:24:28;6.90;1.40
2174;DHT22;1093;51.424;11.764;2022-12-22T01:27:12;6.90;1.40
2174;DHT22;1093;51.424;11.764;2022-12-22T01:29:57;6.90;1.40
2174;DHT22;1093;51.424;11.764;2022-12-22T01:32:41;6.90;1.40
2174;DHT22;1093;51.424;11.764;2022-12-22T01:35:28;6.80;1.40
2174;DHT22;1093;51.424;11.764;2022-12-22T01:38:14;6.90;1.40
2174;DHT22;1093;51.424;11.764;2022-12-22T01:40:59;6.90;1.40
2174;DHT22;1093;51.424;11.764;2022-12-22T01:43:44;6.90;1.40
2174;DHT22;1093;51.424;11.764;2022-12-22T01:46:31;7.00;1.40
2174;DHT22;1093;51.424;11.764;2022-12-22T01:49:18;7.00;1.40
2174;DHT22;1093;51.424;11.764;2022-12-22T01:52:05;7.00;1.40
2174;DHT22;1093;51.424;11.764;2022-12-22T01:54:52;7.00;1.40
2174;DHT22;1093;51.424;11.764;2022-12-22T01:57:38;7.10;1.40
2174;DHT22;1093;51.424;11.764;2022-12-22T02:00:22;7.10;1.40
2174;DHT22;1093;51.424;11.764;2022-12-22T02:03:14;7.20;1.40
2174;DHT22;1093;51.424;11.764;2022-12-22T02:06:09;7.20;1.40
2174;DHT22;1093;51.424;11.764;2022-12-22T02:09:06;7.30;1.40
2174;DHT22;1093;51.424;11.764;2022-12-22T02:12:00;7.30;1.40
2174;DHT22;1093;51.424;11.764;2022-12-22T02:14:51;7.40;1.40
2174;DHT22;1093;51.424;11.764;2022-12-22T02:17:42;7.50;1.40
2174;DHT22;1093;51.424;11.764;2022-12-22T02:20:35;7.50;1.40
2174;DHT22;1093;51.424;11.764;2022-12-22T02:23:36;7.50;1.40
2174;DHT22;1093;51.424;11.764;2022-12-22T02:26:27;7.60;1.40
2174;DHT22;1093;51.424;11.764;2022-12-22T02:29:13;7.50;1.40
2174;DHT22;1093;51.424;11.764;2022-12-22T02:31:57;7.40;1.40
2174;DHT22;1093;51.424;11.764;2022-12-22T02:34:42;7.40;1.40
2174;DHT22;1093;51.424;11.764;2022-12-22T02:37:31;7.50;1.40
2174;DHT22;1093;51.424;11.764;2022-12-22T02:40:25;7.50;1.40
2174;DHT22;1093;51.424;11.764;2022-12-22T02:43:21;7.50;1.40
2174;DHT22;1093;51.424;11.764;2022-12-22T02:46:10;7.50;1.40
2174;DHT22;1093;51.424;11.764;2022-12-22T02:49:00;7.50;1.40
2174;DHT22;1093;51.424;11.764;2022-12-22T02:51:49;7.40;1.40
2174;DHT22;1093;51.424;11.764;2022-12-22T02:54:34;7.40;1.40
2174;DHT22;1093;51.424;11.764;2022-12-22T02:57:19;7.40;1.40
2174;DHT22;1093;51.424;11.764;2022-12-22T03:00:07;7.30;1.40
2174;DHT22;1093;51.424;11.764;2022-12-22T03:02:51;7.20;1.40
2174;DHT22;1093;51.424;11.764;2022-12-22T03:05:36;7.10;1.40
2174;DHT22;1093;51.424;11.764;2022-12-22T03:08:20;7.10;1.40
2174;DHT22;1093;51.424;11.764;2022-12-22T03:11:04;7.10;1.40
2174;DHT22;1093;51.424;11.764;2022-12-22T03:13:48;7.10;1.40
2174;DHT22;1093;51.424;11.764;2022-12-22T03:16:34;7.10;1.40
2174;DHT22;1093;51.424;11.764;2022-12-22T03:19:19;7.10;1.40
2174;DHT22;1093;51.424;11.764;2022-12-22T03:22:03;7.10;1.40
2174;DHT22;1093;51.424;11.764;2022-12-22T03:24:47;7.20;1.40
2174;DHT22;1093;51.424;11.764;2022-12-22T03:27:31;7.30;1.40
2174;DHT22;1093;51.424;11.764;2022-12-22T03:29:58;7.40;1.40
2174;DHT22;1093;51.424;11.764;2022-12-22T03:32:26;7.50;1.40
2174;DHT22;1093;51.424;11.764;2022-12-22T03:34:52;7.50;1.40
2174;DHT22;1093;51.424;11.764;2022-12-22T03:37:19;7.50;1.40
2174;DHT22;1093;51.424;11.764;2022-12-22T03:39:46;7.60;1.40
2174;DHT22;1093;51.424;11.764;2022-12-22T03:42:12;7.70;1.40
2174;DHT22;1093;51.424;11.764;2022-12-22T03:44:57;7.70;1.40
2174;DHT22;1093;51.424;11.764;2022-12-22T03:47:42;7.70;1.40
2174;DHT22;1093;51.424;11.764;2022-12-22T03:50:09;7.70;1.40
2174;DHT22;1093;51.424;11.764;2022-12-22T03:52:36;7.70;1.40
2174;DHT22;1093;51.424;11.764;2022-12-22T03:55:03;7.70;1.40
2174;DHT22;1093;51.424;11.764;2022-12-22T03:57:30;7.70;1.40
2174;DHT22;1093;51.424;11.764;2022-12-22T03:59:57;7.70;1.40
2174;DHT22;1093;51.424;11.764;2022-12-22T04:02:24;7.70;1.40
2174;DHT22;1093;51.424;11.764;2022-12-22T04:04:52;7.70;1.40
2174;DHT22;1093;51.424;11.764;2022-12-22T04:07:18;7.70;1.40
2174;DHT22;1093;51.424;11.764;2022-12-22T04:09:45;7.70;1.40
2174;DHT22;1093;51.424;11.764;2022-12-22T04:12:25;7.60;1.40
2174;DHT22;1093;51.424;11.764;2022-12-22T04:15:09;7.70;1.40
2174;DHT22;1093;51.424;11.764;2022-12-22T04:17:36;7.80;1.40
2174;DHT22;1093;51.424;11.764;2022-12-22T04:20:05;7.80;1.40
2174;DHT22;1093;51.424;11.764;2022-12-22T04:22:32;7.80;1.40
2174;DHT22;1093;51.424;11.764;2022-12-22T04:24:59;7.80;1.40
2174;DHT22;1093;51.424;11.764;2022-12-22T04:27:26;7.90;1.40
2174;DHT22;1093;51.424;11.764;2022-12-22T04:29:52;7.90;1.40
2174;DHT22;1093;51.424;11.764;2022-12-22T04:32:19;7.90;1.40
2174;DHT22;1093;51.424;11.764;2022-12-22T04:34:46;7.90;1.40
2174;DHT22;1093;51.424;11.764;2022-12-22T04:37:14;7.90;1.40
2174;DHT22;1093;51.424;11.764;2022-12-22T04:39:41;7.90;1.40
2174;DHT22;1093;51.424;11.764;2022-12-22T04:42:07;8.00;1.40
2174;DHT22;1093;51.424;11.764;2022-12-22T04:44:34;8.00;1.40
2174;DHT22;1093;51.424;11.764;2022-12-22T04:47:01;8.10;1.40
2174;DHT22;1093;51.424;11.764;2022-12-22T04:49:27;8.20;1.40
2174;DHT22;1093;51.424;11.764;2022-12-22T04:51:54;8.20;1.40
2174;DHT22;1093;51.424;11.764;2022-12-22T04:54:22;8.30;1.40
2174;DHT22;1093;51.424;11.764;2022-12-22T04:56:49;8.30;1.40
2174;DHT22;1093;51.424;11.764;2022-12-22T04:59:16;8.40;1.40
2174;DHT22;1093;51.424;11.764;2022-12-22T05:01:42;8.40;1.40
2174;DHT22;1093;51.424;11.764;2022-12-22T05:04:09;8.40;1.40
2174;DHT22;1093;51.424;11.764;2022-12-22T05:06:36;8.50;1.40
2174;DHT22;1093;51.424;11.764;2022-12-22T05:09:03;8.50;1.40
2174;DHT22;1093;51.424;11.764;2022-12-22T05:11:31;8.50;1.40
2174;DHT22;1093;51.424;11.764;2022-12-22T05:13:57;8.50;1.40
2174;DHT22;1093;51.424;11.764;2022-12-22T05:16:24;8.50;1.40
2174;DHT22;1093;51.424;11.764;2022-12-22T05:18:51;8.60;1.40
2174;DHT22;1093;51.424;11.764;2022-12-22T05:21:19;8.50;1.40
2174;DHT22;1093;51.424;11.764;2022-12-22T05:23:48;8.60;1.40
2174;DHT22;1093;51.424;11.764;2022-12-22T05:26:15;8.60;1.40
2174;DHT22;1093;51.424;11.764;2022-12-22T05:28:44;8.60;1.40
2174;DHT22;1093;51.424;11.764;2022-12-22T05:31:14;8.60;1.40
2174;DHT22;1093;51.424;11.764;2022-12-22T05:33:41;8.70;1.40
2174;DHT22;1093;51.424;11.764;2022-12-22T05:36:08;8.70;1.40
2174;DHT22;1093;51.424;11.764;2022-12-22T05:38:35;8.70;1.40
2174;DHT22;1093;51.424;11.764;2022-12-22T05:41:02;8.80;1.40
2174;DHT22;1093;51.424;11.764;2022-12-22T05:43:28;8.70;1.40
2174;DHT22;1093;51.424;11.764;2022-12-22T05:45:59;8.70;1.40
2174;DHT22;1093;51.424;11.764;2022-12-22T05:48:26;8.70;1.40
2174;DHT22;1093;51.424;11.764;2022-12-22T05:50:53;8.70;1.40
2174;DHT22;1093;51.424;11.764;2022-12-22T05:53:19;8.70;1.40
2174;DHT22;1093;51.424;11.764;2022-12-22T05:55:46;8.70;1.40
2174;DHT22;1093;51.424;11.764;2022-12-22T05:58:13;8.70;1.40
2174;DHT22;1093;51.424;11.764;2022-12-22T06:00:40;8.70;1.40
2174;DHT22;1093;51.424;11.764;2022-12-22T06:03:08;8.70;1.40
2174;DHT22;1093;51.424;11.764;2022-12-22T06:05:35;8.60;1.40
2174;DHT22;1093;51.424;11.764;2022-12-22T06:08:02;8.70;1.40
2174;DHT22;1093;51.424;11.764;2022-12-22T06:10:28;8.60;1.40
2174;DHT22;1093;51.424;11.764;2022-12-22T06:12:55;8.60;1.40
2174;DHT22;1093;51.424;11.764;2022-12-22T06:15:22;8.60;1.40
2174;DHT22;1093;51.424;11.764;2022-12-22T06:17:48;8.60;1.40
2174;DHT22;1093;51.424;11.764;2022-12-22T06:20:17;8.70;1.40
2174;DHT22;1093;51.424;11.764;2022-12-22T06:22:43;8.70;1.40
2174;DHT22;1093;51.424;11.764;2022-12-22T06:25:10;8.70;1.40
2174;DHT22;1093;51.424;11.764;2022-12-22T06:27:37;8.70;1.40
2174;DHT22;1093;51.424;11.764;2022-12-22T06:30:05;8.70;1.40
2174;DHT22;1093;51.424;11.764;2022-12-22T06:32:34;8.70;1.40
2174;DHT22;1093;51.424;11.764;2022-12-22T06:35:01;8.80;1.40
2174;DHT22;1093;51.424;11.764;2022-12-22T06:37:29;8.80;1.40
2174;DHT22;1093;51.424;11.764;2022-12-22T06:39:56;8.80;1.40
2174;DHT22;1093;51.424;11.764;2022-12-22T06:42:22;8.90;1.40
2174;DHT22;1093;51.424;11.764;2022-12-22T06:45:07;8.90;1.40
2174;DHT22;1093;51.424;11.764;2022-12-22T06:47:35;8.90;1.40
2174;DHT22;1093;51.424;11.764;2022-12-22T06:50:02;8.90;1.40
2174;DHT22;1093;51.424;11.764;2022-12-22T06:52:30;8.80;1.40
2174;DHT22;1093;51.424;11.764;2022-12-22T06:54:57;8.80;1.40
2174;DHT22;1093;51.424;11.764;2022-12-22T06:57:23;8.80;1.40
2174;DHT22;1093;51.424;11.764;2022-12-22T06:59:50;8.80;1.40
2174;DHT22;1093;51.424;11.764;2022-12-22T07:02:17;8.90;1.40
2174;DHT22;1093;51.424;11.764;2022-12-22T07:04:44;8.90;1.40
2174;DHT22;1093;51.424;11.764;2022-12-22T07:07:10;8.90;1.40
2174;DHT22;1093;51.424;11.764;2022-12-22T07:09:38;9.00;1.40
2174;DHT22;1093;51.424;11.764;2022-12-22T07:12:05;9.00;1.40
2174;DHT22;1093;51.424;11.764;2022-12-22T07:14:32;9.00;1.40
2174;DHT22;1093;51.424;11.764;2022-12-22T07:16:59;9.00;1.40
2174;DHT22;1093;51.424;11.764;2022-12-22T07:19:25;9.00;1.40
2174;DHT22;1093;51.424;11.764;2022-12-22T07:21:52;9.00;1.40
2174;DHT22;1093;51.424;11.764;2022-12-22T07:24:19;9.00;1.40
2174;DHT22;1093;51.424;11.764;2022-12-22T07:26:51;9.00;1.40
2174;DHT22;1093;51.424;11.764;2022-12-22T07:29:18;9.00;1.40
2174;DHT22;1093;51.424;11.764;2022-12-22T07:31:44;9.00;1.40
2174;DHT22;1093;51.424;11.764;2022-12-22T07:34:11;9.00;1.40
2174;DHT22;1093;51.424;11.764;2022-12-22T07:36:38;9.00;1.40
2174;DHT22;1093;51.424;11.764;2022-12-22T07:39:05;9.00;1.40
2174;DHT22;1093;51.424;11.764;2022-12-22T07:41:32;8.90;1.40
2174;DHT22;1093;51.424;11.764;2022-12-22T07:44:17;8.90;1.40
2174;DHT22;1093;51.424;11.764;2022-12-22T07:46:44;8.90;1.40
2174;DHT22;1093;51.424;11.764;2022-12-22T07:49:11;8.90;1.40
2174;DHT22;1093;51.424;11.764;2022-12-22T07:51:56;8.90;1.40
2174;DHT22;1093;51.424;11.764;2022-12-22T07:54:23;8.90;1.40
2174;DHT22;1093;51.424;11.764;2022-12-22T07:56:50;8.90;1.40
2174;DHT22;1093;51.424;11.764;2022-12-22T07:59:19;8.80;1.40
2174;DHT22;1093;51.424;11.764;2022-12-22T08:01:45;8.80;1.40
2174;DHT22;1093;51.424;11.764;2022-12-22T08:04:13;8.80;1.40
2174;DHT22;1093;51.424;11.764;2022-12-22T08:06:40;8.70;1.40
2174;DHT22;1093;51.424;11.764;2022-12-22T08:09:08;8.80;1.40
2174;DHT22;1093;51.424;11.764;2022-12-22T08:11:35;8.80;1.40
2174;DHT22;1093;51.424;11.764;2022-12-22T08:14:02;8.70;1.40
2174;DHT22;1093;51.424;11.764;2022-12-22T08:16:30;8.70;1.40
2174;DHT22;1093;51.424;11.764;2022-12-22T08:18:57;8.80;1.40
2174;DHT22;1093;51.424;11.764;2022-12-22T08:21:23;8.80;1.40
2174;DHT22;1093;51.424;11.764;2022-12-22T08:23:50;8.80;1.40
2174;DHT22;1093;51.424;11.764;2022-12-22T08:26:20;8.80;1.40
2174;DHT22;1093;51.424;11.764;2022-12-22T08:28:50;8.80;1.40
2174;DHT22;1093;51.424;11.764;2022-12-22T08:31:19;8.80;1.40
2174;DHT22;1093;51.424;11.764;2022-12-22T08:33:49;8.80;1.40
2174;DHT22;1093;51.424;11.764;2022-12-22T08:36:16;8.80;1.40
2174;DHT22;1093;51.424;11.764;2022-12-22T08:38:43;8.80;1.40
2174;DHT22;1093;51.424;11.764;2022-12-22T08:41:13;8.80;1.40
2174;DHT22;1093;51.424;11.764;2022-12-22T08:43:40;8.80;1.40
2174;DHT22;1093;51.424;11.764;2022-12-22T08:46:07;8.80;1.40
2174;DHT22;1093;51.424;11.764;2022-12-22T08:48:34;8.80;1.40
2174;DHT22;1093;51.424;11.764;2022-12-22T08:51:02;8.80;1.40
2174;DHT22;1093;51.424;11.764;2022-12-22T08:53:29;8.90;1.40
2174;DHT22;1093;51.424;11.764;2022-12-22T08:55:56;8.90;1.40
2174;DHT22;1093;51.424;11.764;2022-12-22T08:58:23;9.00;1.40
2174;DHT22;1093;51.424;11.764;2022-12-22T09:00:49;9.00;1.40
2174;DHT22;1093;51.424;11.764;2022-12-22T09:03:16;9.00;1.40
2174;DHT22;1093;51.424;11.764;2022-12-22T09:05:43;9.00;1.40
2174;DHT22;1093;51.424;11.764;2022-12-22T09:08:11;9.10;1.40
2174;DHT22;1093;51.424;11.764;2022-12-22T09:10:40;9.10;1.40
2174;DHT22;1093;51.424;11.764;2022-12-22T09:13:07;9.10;1.40
2174;DHT22;1093;51.424;11.764;2022-12-22T09:15:35;9.10;1.40
2174;DHT22;1093;51.424;11.764;2022-12-22T09:18:02;9.10;1.40
2174;DHT22;1093;51.424;11.764;2022-12-22T09:20:29;9.20;1.40
2174;DHT22;1093;51.424;11.764;2022-12-22T09:22:55;9.10;1.40
2174;DHT22;1093;51.424;11.764;2022-12-22T09:25:23;9.20;1.40
2174;DHT22;1093;51.424;11.764;2022-12-22T09:27:50;9.20;1.40
2174;DHT22;1093;51.424;11.764;2022-12-22T09:30:17;9.20;1.40
2174;DHT22;1093;51.424;11.764;2022-12-22T09:32:44;9.20;1.40
2174;DHT22;1093;51.424;11.764;2022-12-22T09:35:10;9.20;1.40
2174;DHT22;1093;51.424;11.764;2022-12-22T09:37:37;9.30;1.40
2174;DHT22;1093;51.424;11.764;2022-12-22T09:40:05;9.30;1.40
2174;DHT22;1093;51.424;11.764;2022-12-22T09:42:34;9.30;1.40
2174;DHT22;1093;51.424;11.764;2022-12-22T09:45:01;9.40;1.40
2174;DHT22;1093;51.424;11.764;2022-12-22T09:47:32;9.50;1.40
2174;DHT22;1093;51.424;11.764;2022-12-22T09:50:01;9.50;1.40
2174;DHT22;1093;51.424;11.764;2022-12-22T09:52:41;9.50;1.40
2174;DHT22;1093;51.424;11.764;2022-12-22T09:55:14;9.50;1.40
2174;DHT22;1093;51.424;11.764;2022-12-22T09:57:46;9.50;1.40
2174;DHT22;1093;51.424;11.764;2022-12-22T10:00:14;9.60;1.40
2174;DHT22;1093;51.424;11.764;2022-12-22T10:02:48;9.60;1.40
2174;DHT22;1093;51.424;11.764;2022-12-22T10:05:21;9.70;1.40
2174;DHT22;1093;51.424;11.764;2022-12-22T10:07:56;9.70;1.40
2174;DHT22;1093;51.424;11.764;2022-12-22T10:10:26;9.80;1.40
2174;DHT22;1093;51.424;11.764;2022-12-22T10:12:57;9.80;1.40
2174;DHT22;1093;51.424;11.764;2022-12-22T10:15:24;9.90;1.40
2174;DHT22;1093;51.424;11.764;2022-12-22T10:17:52;9.90;1.40
2174;DHT22;1093;51.424;11.764;2022-12-22T10:20:22;10.00;1.40
2174;DHT22;1093;51.424;11.764;2022-12-22T10:22:52;10.00;1.40
2174;DHT22;1093;51.424;11.764;2022-12-22T10:25:26;10.10;1.40
2174;DHT22;1093;51.424;11.764;2022-12-22T10:27:56;10.10;1.40
2174;DHT22;1093;51.424;11.764;2022-12-22T10:30:26;10.10;1.40
2174;DHT22;1093;51.424;11.764;2022-12-22T10:33:02;10.20;1.40
2174;DHT22;1093;51.424;11.764;2022-12-22T10:35:43;10.20;1.40
2174;DHT22;1093;51.424;11.764;2022-12-22T10:38:24;10.20;1.40
2174;DHT22;1093;51.424;11.764;2022-12-22T10:40:54;10.30;1.40
2174;DHT22;1093;51.424;11.764;2022-12-22T10:43:26;10.30;1.40
2174;DHT22;1093;51.424;11.764;2022-12-22T10:45:54;10.30;1.40
2174;DHT22;1093;51.424;11.764;2022-12-22T10:48:26;10.30;1.40
2174;DHT22;1093;51.424;11.764;2022-12-22T10:50:54;10.40;1.40
2174;DHT22;1093;51.424;11.764;2022-12-22T10:53:39;10.40;1.40
2174;DHT22;1093;51.424;11.764;2022-12-22T10:56:16;10.40;1.40
2174;DHT22;1093;51.424;11.764;2022-12-22T10:58:50;10.50;1.40
2174;DHT22;1093;51.424;11.764;2022-12-22T11:01:26;10.60;1.40
2174;DHT22;1093;51.424;11.764;2022-12-22T11:03:53;10.60;1.40
2174;DHT22;1093;51.424;11.764;2022-12-22T11:06:20;10.60;1.40
2174;DHT22;1093;51.424;11.764;2022-12-22T11:08:47;10.70;1.40
2174;DHT22;1093;51.424;11.764;2022-12-22T11:11:22;10.80;1.40
2174;DHT22;1093;51.424;11.764;2022-12-22T11:14:01;10.80;1.40
2174;DHT22;1093;51.424;11.764;2022-12-22T11:16:34;10.80;1.40
2174;DHT22;1093;51.424;11.764;2022-12-22T11:19:31;10.80;1.40
2174;DHT22;1093;51.424;11.764;2022-12-22T11:22:07;10.80;1.40
2174;DHT22;1093;51.424;11.764;2022-12-22T11:24:42;10.90;1.40
2174;DHT22;1093;51.424;11.764;2022-12-22T11:27:26;10.90;1.40
2174;DHT22;1093;51.424;11.764;2022-12-22T11:30:02;11.00;1.40
2174;DHT22;1093;51.424;11.764;2022-12-22T11:32:48;11.10;1.40
2174;DHT22;1093;51.424;11.764;2022-12-22T11:35:21;11.10;1.40
2174;DHT22;1093;51.424;11.764;2022-12-22T11:37:54;11.10;1.40
2174;DHT22;1093;51.424;11.764;2022-12-22T11:40:29;11.10;1.40
2174;DHT22;1093;51.424;11.764;2022-12-22T11:43:09;11.10;1.40
2174;DHT22;1093;51.424;11.764;2022-12-22T11:45:55;11.10;1.40
2174;DHT22;1093;51.424;11.764;2022-12-22T11:48:40;11.10;1.40
2174;DHT22;1093;51.424;11.764;2022-12-22T11:51:15;11.10;1.40
2174;DHT22;1093;51.424;11.764;2022-12-22T11:56:47;11.10;1.40
2174;DHT22;1093;51.424;11.764;2022-12-22T11:59:35;11.10;1.40
2174;DHT22;1093;51.424;11.764;2022-12-22T12:02:26;11.20;1.40
2174;DHT22;1093;51.424;11.764;2022-12-22T12:05:25;11.10;1.40
2174;DHT22;1093;51.424;11.764;2022-12-22T12:07:59;11.20;1.40
2174;DHT22;1093;51.424;11.764;2022-12-22T12:10:33;11.30;1.40
2174;DHT22;1093;51.424;11.764;2022-12-22T12:13:08;11.30;1.40
2174;DHT22;1093;51.424;11.764;2022-12-22T12:15:42;11.30;1.40
2174;DHT22;1093;51.424;11.764;2022-12-22T12:18:40;11.30;1.40
2174;DHT22;1093;51.424;11.764;2022-12-22T12:21:21;11.30;1.40
2174;DHT22;1093;51.424;11.764;2022-12-22T12:24:14;11.30;1.40
2174;DHT22;1093;51.424;11.764;2022-12-22T12:26:51;11.30;1.40
2174;DHT22;1093;51.424;11.764;2022-12-22T12:29:24;11.30;1.40
2174;DHT22;1093;51.424;11.764;2022-12-22T12:31:57;11.30;1.40
2174;DHT22;1093;51.424;11.764;2022-12-22T12:34:30;11.30;1.40
2174;DHT22;1093;51.424;11.764;2022-12-22T12:37:04;11.30;1.40
2174;DHT22;1093;51.424;11.764;2022-12-22T12:39:35;11.30;1.40
2174;DHT22;1093;51.424;11.764;2022-12-22T12:42:16;11.30;1.40
2174;DHT22;1093;51.424;11.764;2022-12-22T12:44:47;11.30;1.40
2174;DHT22;1093;51.424;11.764;2022-12-22T12:47:21;11.30;1.40
2174;DHT22;1093;51.424;11.764;2022-12-22T12:53:12;11.20;1.40
2174;DHT22;1093;51.424;11.764;2022-12-22T12:55:55;11.20;1.40
2174;DHT22;1093;51.424;11.764;2022-12-22T12:58:50;11.20;1.40
2174;DHT22;1093;51.424;11.764;2022-12-22T13:08:05;11.10;1.40
2174;DHT22;1093;51.424;11.764;2022-12-22T13:10:36;11.00;1.40
2174;DHT22;1093;51.424;11.764;2022-12-22T13:13:04;11.00;1.40
2174;DHT22;1093;51.424;11.764;2022-12-22T13:15:33;11.00;1.40
2174;DHT22;1093;51.424;11.764;2022-12-22T13:18:02;10.90;1.40
2174;DHT22;1093;51.424;11.764;2022-12-22T13:20:30;10.90;1.40
2174;DHT22;1093;51.424;11.764;2022-12-22T13:23:01;10.80;1.40
2174;DHT22;1093;51.424;11.764;2022-12-22T13:25:42;10.90;1.40
2174;DHT22;1093;51.424;11.764;2022-12-22T13:28:15;10.80;1.40
2174;DHT22;1093;51.424;11.764;2022-12-22T13:30:46;10.80;1.40
2174;DHT22;1093;51.424;11.764;2022-12-22T13:33:15;10.80;1.40
2174;DHT22;1093;51.424;11.764;2022-12-22T13:35:44;10.70;1.40
2174;DHT22;1093;51.424;11.764;2022-12-22T13:38:28;10.70;1.40
2174;DHT22;1093;51.424;11.764;2022-12-22T13:40:56;10.70;1.40
2174;DHT22;1093;51.424;11.764;2022-12-22T13:43:23;10.70;1.40
2174;DHT22;1093;51.424;11.764;2022-12-22T13:45:53;10.70;1.40
2174;DHT22;1093;51.424;11.764;2022-12-22T13:48:24;10.70;1.40
2174;DHT22;1093;51.424;11.764;2022-12-22T13:50:56;10.70;1.40
2174;DHT22;1093;51.424;11.764;2022-12-22T13:53:29;10.70;1.40
2174;DHT22;1093;51.424;11.764;2022-12-22T13:55:58;10.60;1.40
2174;DHT22;1093;51.424;11.764;2022-12-22T13:58:27;10.60;1.40
2174;DHT22;1093;51.424;11.764;2022-12-22T14:01:03;10.60;1.40
2174;DHT22;1093;51.424;11.764;2022-12-22T14:03:30;10.70;1.40
2174;DHT22;1093;51.424;11.764;2022-12-22T14:05:57;10.70;1.40
2174;DHT22;1093;51.424;11.764;2022-12-22T14:08:23;10.60;1.40
2174;DHT22;1093;51.424;11.764;2022-12-22T14:10:52;10.50;1.40
2174;DHT22;1093;51.424;11.764;2022-12-22T14:13:23;10.50;1.40
2174;DHT22;1093;51.424;11.764;2022-12-22T14:15:58;10.50;1.40
2174;DHT22;1093;51.424;11.764;2022-12-22T14:18:26;10.50;1.40
2174;DHT22;1093;51.424;11.764;2022-12-22T14:20:53;10.40;1.40
2174;DHT22;1093;51.424;11.764;2022-12-22T14:23:22;10.40;1.40
2174;DHT22;1093;51.424;11.764;2022-12-22T14:25:53;10.40;1.40
2174;DHT22;1093;51.424;11.764;2022-12-22T14:28:23;10.40;1.40
2174;DHT22;1093;51.424;11.764;2022-12-22T14:30:52;10.40;1.40
2174;DHT22;1093;51.424;11.764;2022-12-22T14:33:27;10.40;1.40
2174;DHT22;1093;51.424;11.764;2022-12-22T14:36:16;10.40;1.40
2174;DHT22;1093;51.424;11.764;2022-12-22T14:38:46;10.40;1.40
2174;DHT22;1093;51.424;11.764;2022-12-22T14:41:21;10.40;1.40
2174;DHT22;1093;51.424;11.764;2022-12-22T14:44:06;10.40;1.40
2174;DHT22;1093;51.424;11.764;2022-12-22T14:46:37;10.30;1.40
2174;DHT22;1093;51.424;11.764;2022-12-22T14:49:04;10.30;1.40
2174;DHT22;1093;51.424;11.764;2022-12-22T14:51:31;10.30;1.40
2174;DHT22;1093;51.424;11.764;2022-12-22T14:53:59;10.30;1.40
2174;DHT22;1093;51.424;11.764;2022-12-22T14:56:28;10.30;1.40
2174;DHT22;1093;51.424;11.764;2022-12-22T14:59:07;10.30;1.40
2174;DHT22;1093;51.424;11.764;2022-12-22T15:01:34;10.30;1.40
2174;DHT22;1093;51.424;11.764;2022-12-22T15:04:05;10.30;1.40
2174;DHT22;1093;51.424;11.764;2022-12-22T15:06:35;10.20;1.40
2174;DHT22;1093;51.424;11.764;2022-12-22T15:09:24;10.20;1.40
2174;DHT22;1093;51.424;11.764;2022-12-22T15:11:55;10.20;1.40
2174;DHT22;1093;51.424;11.764;2022-12-22T15:14:24;10.20;1.40
2174;DHT22;1093;51.424;11.764;2022-12-22T15:16:54;10.10;1.40
2174;DHT22;1093;51.424;11.764;2022-12-22T15:19:21;10.10;1.40
2174;DHT22;1093;51.424;11.764;2022-12-22T15:21:49;10.00;1.40
2174;DHT22;1093;51.424;11.764;2022-12-22T15:24:16;10.00;1.40
2174;DHT22;1093;51.424;11.764;2022-12-22T15:26:44;10.00;1.40
2174;DHT22;1093;51.424;11.764;2022-12-22T15:29:13;9.90;1.40
2174;DHT22;1093;51.424;11.764;2022-12-22T15:31:40;9.90;1.40
2174;DHT22;1093;51.424;11.764;2022-12-22T15:34:11;9.90;1.40
2174;DHT22;1093;51.424;11.764;2022-12-22T15:36:38;9.90;1.40
2174;DHT22;1093;51.424;11.764;2022-12-22T15:39:11;9.80;1.40
2174;DHT22;1093;51.424;11.764;2022-12-22T15:41:38;9.80;1.40
2174;DHT22;1093;51.424;11.764;2022-12-22T15:44:05;9.80;1.40
2174;DHT22;1093;51.424;11.764;2022-12-22T15:46:33;9.70;1.40
2174;DHT22;1093;51.424;11.764;2022-12-22T15:49:01;9.70;1.40
2174;DHT22;1093;51.424;11.764;2022-12-22T15:51:29;9.70;1.40
2174;DHT22;1093;51.424;11.764;2022-12-22T15:53:58;9.70;1.40
2174;DHT22;1093;51.424;11.764;2022-12-22T15:56:26;9.70;1.40
2174;DHT22;1093;51.424;11.764;2022-12-22T15:58:55;9.70;1.40
2174;DHT22;1093;51.424;11.764;2022-12-22T16:01:22;9.70;1.40
2174;DHT22;1093;51.424;11.764;2022-12-22T16:03:50;9.70;1.40
2174;DHT22;1093;51.424;11.764;2022-12-22T16:06:18;9.70;1.40
2174;DHT22;1093;51.424;11.764;2022-12-22T16:08:47;9.60;1.40
2174;DHT22;1093;51.424;11.764;2022-12-22T16:11:15;9.70;1.40
2174;DHT22;1093;51.424;11.764;2022-12-22T16:13:44;9.60;1.40
2174;DHT22;1093;51.424;11.764;2022-12-22T16:16:12;9.60;1.40
2174;DHT22;1093;51.424;11.764;2022-12-22T16:18:39;9.70;1.40
2174;DHT22;1093;51.424;11.764;2022-12-22T16:21:14;9.60;1.40
2174;DHT22;1093;51.424;11.764;2022-12-22T16:23:44;9.60;1.40
2174;DHT22;1093;51.424;11.764;2022-12-22T16:26:14;9.60;1.40
2174;DHT22;1093;51.424;11.764;2022-12-22T16:28:42;9.60;1.40
2174;DHT22;1093;51.424;11.764;2022-12-22T16:31:16;9.60;1.40
2174;DHT22;1093;51.424;11.764;2022-12-22T16:33:43;9.50;1.40
2174;DHT22;1093;51.424;11.764;2022-12-22T16:36:13;9.50;1.40
2174;DHT22;1093;51.424;11.764;2022-12-22T16:38:43;9.50;1.40
2174;DHT22;1093;51.424;11.764;2022-12-22T16:41:20;9.40;1.40
2174;DHT22;1093;51.424;11.764;2022-12-22T16:43:48;9.50;1.40
2174;DHT22;1093;51.424;11.764;2022-12-22T16:46:20;9.40;1.40
2174;DHT22;1093;51.424;11.764;2022-12-22T16:48:50;9.40;1.40
2174;DHT22;1093;51.424;11.764;2022-12-22T16:51:22;9.40;1.40
2174;DHT22;1093;51.424;11.764;2022-12-22T16:53:51;9.30;1.40
2174;DHT22;1093;51.424;11.764;2022-12-22T16:56:20;9.30;1.40
2174;DHT22;1093;51.424;11.764;2022-12-22T16:58:47;9.30;1.40
2174;DHT22;1093;51.424;11.764;2022-12-22T17:01:26;9.30;1.40
2174;DHT22;1093;51.424;11.764;2022-12-22T17:04:02;9.30;1.40
2174;DHT22;1093;51.424;11.764;2022-12-22T17:06:33;9.30;1.40